sensor_id;sensor_type;location;lat;lon;timestamp;P1;durP1;ratioP1;P2;durP2;ratioP2
75746;SDS011;64363;52.198;21.020;2022-10-23T00:01:15;46.80;;;26.02;;
75746;SDS011;64363;52.198;21.020;2022-10-23T00:04:05;34.65;;;19.05;;
75746;SDS011;64363;52.198;21.020;2022-10-23T00:06:33;33.42;;;18.55;;
75746;SDS011;64363;52.198;21.020;2022-10-23T00:08:59;29.77;;;17.90;;
75746;SDS011;64363;52.198;21.020;2022-10-23T00:11:26;36.70;;;17.55;;
75746;SDS011;64363;52.198;21.020;2022-10-23T00:13:55;34.10;;;18.50;;
75746;SDS011;64363;52.198;21.020;2022-10-23T00:16:22;32.63;;;18.63;;
75746;SDS011;64363;52.198;21.020;2022-10-23T00:18:48;32.67;;;18.67;;
75746;SDS011;64363;52.198;21.020;2022-10-23T00:21:14;30.60;;;18.88;;
75746;SDS011;64363;52.198;21.020;2022-10-23T00:23:41;32.53;;;18.20;;
75746;SDS011;64363;52.198;21.020;2022-10-23T00:26:08;33.28;;;19.13;;
75746;SDS011;64363;52.198;21.020;2022-10-23T00:28:43;30.08;;;17.77;;
75746;SDS011;64363;52.198;21.020;2022-10-23T00:31:11;30.45;;;17.85;;
75746;SDS011;64363;52.198;21.020;2022-10-23T00:33:38;33.22;;;19.20;;
75746;SDS011;64363;52.198;21.020;2022-10-23T00:36:07;31.45;;;18.90;;
75746;SDS011;64363;52.198;21.020;2022-10-23T00:38:35;31.90;;;18.70;;
75746;SDS011;64363;52.198;21.020;2022-10-23T00:41:01;28.63;;;16.55;;
75746;SDS011;64363;52.198;21.020;2022-10-23T00:43:29;27.70;;;16.45;;
75746;SDS011;64363;52.198;21.020;2022-10-23T00:45:56;33.20;;;17.15;;
75746;SDS011;64363;52.198;21.020;2022-10-23T00:48:23;33.75;;;17.48;;
75746;SDS011;64363;52.198;21.020;2022-10-23T00:50:50;32.55;;;16.85;;
75746;SDS011;64363;52.198;21.020;2022-10-23T00:53:17;33.30;;;18.88;;
75746;SDS011;64363;52.198;21.020;2022-10-23T00:55:46;31.08;;;16.50;;
75746;SDS011;64363;52.198;21.020;2022-10-23T00:58:18;35.88;;;18.33;;
75746;SDS011;64363;52.198;21.020;2022-10-23T01:03:13;31.33;;;16.63;;
75746;SDS011;64363;52.198;21.020;2022-10-23T01:11:14;37.92;;;17.40;;
75746;SDS011;64363;52.198;21.020;2022-10-23T01:25:35;31.30;;;17.00;;
75746;SDS011;64363;52.198;21.020;2022-10-23T01:28:13;36.25;;;16.77;;
75746;SDS011;64363;52.198;21.020;2022-10-23T01:30:46;35.90;;;17.38;;
75746;SDS011;64363;52.198;21.020;2022-10-23T01:33:14;34.42;;;16.85;;
75746;SDS011;64363;52.198;21.020;2022-10-23T01:35:46;39.42;;;17.00;;
75746;SDS011;64363;52.198;21.020;2022-10-23T01:40:53;39.00;;;17.42;;
75746;SDS011;64363;52.198;21.020;2022-10-23T01:43:30;40.15;;;17.75;;
75746;SDS011;64363;52.198;21.020;2022-10-23T01:46:06;39.97;;;17.70;;
75746;SDS011;64363;52.198;21.020;2022-10-23T01:48:35;39.03;;;17.27;;
75746;SDS011;64363;52.198;21.020;2022-10-23T01:51:05;35.95;;;16.27;;
75746;SDS011;64363;52.198;21.020;2022-10-23T01:53:36;36.38;;;17.20;;
75746;SDS011;64363;52.198;21.020;2022-10-23T01:56:09;39.92;;;17.90;;
75746;SDS011;64363;52.198;21.020;2022-10-23T01:58:38;40.47;;;18.48;;
75746;SDS011;64363;52.198;21.020;2022-10-23T02:01:08;38.85;;;18.30;;
75746;SDS011;64363;52.198;21.020;2022-10-23T02:03:35;31.15;;;15.43;;
75746;SDS011;64363;52.198;21.020;2022-10-23T02:06:03;31.80;;;16.45;;
75746;SDS011;64363;52.198;21.020;2022-10-23T02:08:29;37.38;;;17.30;;
75746;SDS011;64363;52.198;21.020;2022-10-23T02:11:09;33.35;;;16.00;;
75746;SDS011;64363;52.198;21.020;2022-10-23T02:13:44;39.78;;;17.70;;
75746;SDS011;64363;52.198;21.020;2022-10-23T02:16:36;36.95;;;17.05;;
75746;SDS011;64363;52.198;21.020;2022-10-23T02:21:53;37.40;;;17.65;;
75746;SDS011;64363;52.198;21.020;2022-10-23T02:24:26;36.45;;;17.77;;
75746;SDS011;64363;52.198;21.020;2022-10-23T02:26:56;40.10;;;18.25;;
75746;SDS011;64363;52.198;21.020;2022-10-23T02:29:27;40.78;;;18.50;;
75746;SDS011;64363;52.198;21.020;2022-10-23T02:31:57;38.55;;;18.05;;
75746;SDS011;64363;52.198;21.020;2022-10-23T02:34:23;35.15;;;17.02;;
75746;SDS011;64363;52.198;21.020;2022-10-23T02:36:49;40.65;;;18.98;;
75746;SDS011;64363;52.198;21.020;2022-10-23T02:39:15;42.45;;;17.50;;
75746;SDS011;64363;52.198;21.020;2022-10-23T02:41:45;37.20;;;18.45;;
75746;SDS011;64363;52.198;21.020;2022-10-23T02:47:00;34.78;;;18.45;;
75746;SDS011;64363;52.198;21.020;2022-10-23T02:52:45;43.47;;;18.27;;
75746;SDS011;64363;52.198;21.020;2022-10-23T02:55:39;40.20;;;18.25;;
75746;SDS011;64363;52.198;21.020;2022-10-23T03:01:01;44.90;;;19.67;;
75746;SDS011;64363;52.198;21.020;2022-10-23T03:03:32;40.83;;;18.40;;
75746;SDS011;64363;52.198;21.020;2022-10-23T03:06:02;40.05;;;18.13;;
75746;SDS011;64363;52.198;21.020;2022-10-23T03:08:28;40.80;;;18.98;;
75746;SDS011;64363;52.198;21.020;2022-10-23T03:10:54;37.15;;;17.55;;
75746;SDS011;64363;52.198;21.020;2022-10-23T03:13:19;42.30;;;19.42;;
75746;SDS011;64363;52.198;21.020;2022-10-23T03:15:45;45.10;;;19.30;;
75746;SDS011;64363;52.198;21.020;2022-10-23T03:18:11;39.17;;;19.15;;
75746;SDS011;64363;52.198;21.020;2022-10-23T03:20:37;40.20;;;18.33;;
75746;SDS011;64363;52.198;21.020;2022-10-23T03:23:02;44.20;;;22.52;;
75746;SDS011;64363;52.198;21.020;2022-10-23T03:25:28;49.90;;;20.88;;
75746;SDS011;64363;52.198;21.020;2022-10-23T03:27:54;44.17;;;20.75;;
75746;SDS011;64363;52.198;21.020;2022-10-23T03:30:20;46.53;;;20.77;;
75746;SDS011;64363;52.198;21.020;2022-10-23T03:32:45;47.60;;;22.60;;
75746;SDS011;64363;52.198;21.020;2022-10-23T03:35:11;48.80;;;21.70;;
75746;SDS011;64363;52.198;21.020;2022-10-23T03:37:37;48.45;;;22.50;;
75746;SDS011;64363;52.198;21.020;2022-10-23T03:40:03;48.30;;;21.27;;
75746;SDS011;64363;52.198;21.020;2022-10-23T03:42:29;50.00;;;21.08;;
75746;SDS011;64363;52.198;21.020;2022-10-23T03:44:55;45.42;;;21.70;;
75746;SDS011;64363;52.198;21.020;2022-10-23T03:47:20;49.88;;;21.38;;
75746;SDS011;64363;52.198;21.020;2022-10-23T03:49:46;51.42;;;21.70;;
75746;SDS011;64363;52.198;21.020;2022-10-23T03:52:11;48.53;;;21.00;;
75746;SDS011;64363;52.198;21.020;2022-10-23T03:54:37;51.03;;;22.67;;
75746;SDS011;64363;52.198;21.020;2022-10-23T03:57:03;52.00;;;21.08;;
75746;SDS011;64363;52.198;21.020;2022-10-23T03:59:28;44.13;;;19.90;;
75746;SDS011;64363;52.198;21.020;2022-10-23T04:01:54;45.08;;;20.55;;
75746;SDS011;64363;52.198;21.020;2022-10-23T04:04:20;45.58;;;19.90;;
75746;SDS011;64363;52.198;21.020;2022-10-23T04:06:45;47.50;;;20.40;;
75746;SDS011;64363;52.198;21.020;2022-10-23T04:09:11;44.10;;;20.83;;
75746;SDS011;64363;52.198;21.020;2022-10-23T04:11:37;41.65;;;20.35;;
75746;SDS011;64363;52.198;21.020;2022-10-23T04:14:03;46.67;;;20.17;;
75746;SDS011;64363;52.198;21.020;2022-10-23T04:16:28;42.05;;;19.33;;
75746;SDS011;64363;52.198;21.020;2022-10-23T04:18:54;38.22;;;19.10;;
75746;SDS011;64363;52.198;21.020;2022-10-23T04:21:20;46.08;;;19.10;;
75746;SDS011;64363;52.198;21.020;2022-10-23T04:23:45;46.22;;;18.35;;
75746;SDS011;64363;52.198;21.020;2022-10-23T04:26:11;43.60;;;20.10;;
75746;SDS011;64363;52.198;21.020;2022-10-23T04:28:37;38.58;;;18.90;;
75746;SDS011;64363;52.198;21.020;2022-10-23T04:31:03;35.63;;;18.23;;
75746;SDS011;64363;52.198;21.020;2022-10-23T04:33:29;45.25;;;20.40;;
75746;SDS011;64363;52.198;21.020;2022-10-23T04:35:54;37.88;;;18.60;;
75746;SDS011;64363;52.198;21.020;2022-10-23T04:38:20;35.50;;;17.83;;
75746;SDS011;64363;52.198;21.020;2022-10-23T04:40:46;36.10;;;18.73;;
75746;SDS011;64363;52.198;21.020;2022-10-23T04:43:12;37.50;;;17.50;;
75746;SDS011;64363;52.198;21.020;2022-10-23T04:45:37;37.85;;;20.42;;
75746;SDS011;64363;52.198;21.020;2022-10-23T04:48:03;39.58;;;18.73;;
75746;SDS011;64363;52.198;21.020;2022-10-23T04:50:29;42.00;;;20.30;;
75746;SDS011;64363;52.198;21.020;2022-10-23T04:52:55;38.17;;;18.85;;
75746;SDS011;64363;52.198;21.020;2022-10-23T04:55:22;44.22;;;20.88;;
75746;SDS011;64363;52.198;21.020;2022-10-23T04:57:49;37.42;;;19.20;;
75746;SDS011;64363;52.198;21.020;2022-10-23T05:00:15;46.97;;;18.85;;
75746;SDS011;64363;52.198;21.020;2022-10-23T05:02:42;36.28;;;18.35;;
75746;SDS011;64363;52.198;21.020;2022-10-23T05:05:08;42.72;;;18.30;;
75746;SDS011;64363;52.198;21.020;2022-10-23T05:07:34;40.03;;;18.23;;
75746;SDS011;64363;52.198;21.020;2022-10-23T05:10:00;40.72;;;18.73;;
75746;SDS011;64363;52.198;21.020;2022-10-23T05:12:26;37.88;;;18.45;;
75746;SDS011;64363;52.198;21.020;2022-10-23T05:14:52;43.20;;;18.45;;
75746;SDS011;64363;52.198;21.020;2022-10-23T05:17:19;39.33;;;17.40;;
75746;SDS011;64363;52.198;21.020;2022-10-23T05:19:52;38.65;;;17.52;;
75746;SDS011;64363;52.198;21.020;2022-10-23T05:22:20;36.67;;;17.48;;
75746;SDS011;64363;52.198;21.020;2022-10-23T05:24:49;34.33;;;16.90;;
75746;SDS011;64363;52.198;21.020;2022-10-23T05:27:15;36.88;;;16.33;;
75746;SDS011;64363;52.198;21.020;2022-10-23T05:29:41;42.67;;;19.33;;
75746;SDS011;64363;52.198;21.020;2022-10-23T05:32:07;38.22;;;18.00;;
75746;SDS011;64363;52.198;21.020;2022-10-23T05:34:36;41.65;;;19.08;;
75746;SDS011;64363;52.198;21.020;2022-10-23T05:37:03;40.50;;;19.40;;
75746;SDS011;64363;52.198;21.020;2022-10-23T05:39:31;41.70;;;18.67;;
75746;SDS011;64363;52.198;21.020;2022-10-23T05:41:58;39.58;;;19.33;;
75746;SDS011;64363;52.198;21.020;2022-10-23T05:44:24;41.88;;;18.92;;
75746;SDS011;64363;52.198;21.020;2022-10-23T05:46:50;41.22;;;20.15;;
75746;SDS011;64363;52.198;21.020;2022-10-23T05:49:15;44.08;;;19.48;;
75746;SDS011;64363;52.198;21.020;2022-10-23T05:51:41;44.58;;;19.48;;
75746;SDS011;64363;52.198;21.020;2022-10-23T05:54:07;43.67;;;20.15;;
75746;SDS011;64363;52.198;21.020;2022-10-23T05:56:36;44.95;;;20.13;;
75746;SDS011;64363;52.198;21.020;2022-10-23T05:59:05;44.22;;;20.83;;
75746;SDS011;64363;52.198;21.020;2022-10-23T06:01:32;41.80;;;20.77;;
75746;SDS011;64363;52.198;21.020;2022-10-23T06:03:58;41.17;;;20.45;;
75746;SDS011;64363;52.198;21.020;2022-10-23T06:06:25;41.55;;;18.30;;
75746;SDS011;64363;52.198;21.020;2022-10-23T06:08:51;39.58;;;18.90;;
75746;SDS011;64363;52.198;21.020;2022-10-23T06:11:17;47.08;;;18.83;;
75746;SDS011;64363;52.198;21.020;2022-10-23T06:13:43;34.70;;;17.00;;
75746;SDS011;64363;52.198;21.020;2022-10-23T06:16:17;34.45;;;18.08;;
75746;SDS011;64363;52.198;21.020;2022-10-23T06:18:45;39.30;;;16.77;;
75746;SDS011;64363;52.198;21.020;2022-10-23T06:21:11;31.85;;;16.23;;
75746;SDS011;64363;52.198;21.020;2022-10-23T06:23:38;34.70;;;16.63;;
75746;SDS011;64363;52.198;21.020;2022-10-23T06:26:06;35.35;;;15.95;;
75746;SDS011;64363;52.198;21.020;2022-10-23T06:28:33;31.90;;;16.25;;
75746;SDS011;64363;52.198;21.020;2022-10-23T06:30:58;32.45;;;15.88;;
75746;SDS011;64363;52.198;21.020;2022-10-23T06:33:27;28.23;;;14.13;;
75746;SDS011;64363;52.198;21.020;2022-10-23T06:35:54;37.95;;;17.42;;
75746;SDS011;64363;52.198;21.020;2022-10-23T06:38:20;37.85;;;15.35;;
75746;SDS011;64363;52.198;21.020;2022-10-23T06:40:51;40.88;;;16.33;;
75746;SDS011;64363;52.198;21.020;2022-10-23T06:43:17;32.28;;;15.45;;
75746;SDS011;64363;52.198;21.020;2022-10-23T06:45:43;32.10;;;15.15;;
75746;SDS011;64363;52.198;21.020;2022-10-23T06:48:08;36.45;;;15.85;;
75746;SDS011;64363;52.198;21.020;2022-10-23T06:50:36;34.85;;;15.27;;
75746;SDS011;64363;52.198;21.020;2022-10-23T06:53:02;36.53;;;16.42;;
75746;SDS011;64363;52.198;21.020;2022-10-23T06:55:30;31.50;;;15.05;;
75746;SDS011;64363;52.198;21.020;2022-10-23T06:57:56;41.10;;;17.42;;
75746;SDS011;64363;52.198;21.020;2022-10-23T07:00:22;35.30;;;16.83;;
75746;SDS011;64363;52.198;21.020;2022-10-23T07:02:48;38.10;;;18.08;;
75746;SDS011;64363;52.198;21.020;2022-10-23T07:05:14;31.95;;;16.38;;
75746;SDS011;64363;52.198;21.020;2022-10-23T07:07:40;35.25;;;16.95;;
75746;SDS011;64363;52.198;21.020;2022-10-23T07:10:06;34.45;;;16.35;;
75746;SDS011;64363;52.198;21.020;2022-10-23T07:12:32;33.03;;;17.05;;
75746;SDS011;64363;52.198;21.020;2022-10-23T07:14:57;32.35;;;16.38;;
75746;SDS011;64363;52.198;21.020;2022-10-23T07:17:23;33.33;;;16.95;;
75746;SDS011;64363;52.198;21.020;2022-10-23T07:19:49;35.13;;;15.50;;
75746;SDS011;64363;52.198;21.020;2022-10-23T07:22:15;31.55;;;14.93;;
75746;SDS011;64363;52.198;21.020;2022-10-23T07:24:40;30.65;;;15.63;;
75746;SDS011;64363;52.198;21.020;2022-10-23T07:27:06;28.52;;;15.25;;
75746;SDS011;64363;52.198;21.020;2022-10-23T07:52:41;29.60;;;14.45;;
75746;SDS011;64363;52.198;21.020;2022-10-23T07:55:08;29.65;;;15.10;;
75746;SDS011;64363;52.198;21.020;2022-10-23T07:57:33;25.65;;;13.85;;
75746;SDS011;64363;52.198;21.020;2022-10-23T07:59:59;27.52;;;14.18;;
75746;SDS011;64363;52.198;21.020;2022-10-23T08:02:25;28.30;;;14.25;;
75746;SDS011;64363;52.198;21.020;2022-10-23T08:04:51;27.15;;;13.52;;
75746;SDS011;64363;52.198;21.020;2022-10-23T08:07:16;26.33;;;14.27;;
75746;SDS011;64363;52.198;21.020;2022-10-23T08:09:42;27.55;;;14.23;;
75746;SDS011;64363;52.198;21.020;2022-10-23T08:12:08;24.40;;;13.30;;
75746;SDS011;64363;52.198;21.020;2022-10-23T08:14:34;24.63;;;14.00;;
75746;SDS011;64363;52.198;21.020;2022-10-23T08:17:00;25.85;;;14.02;;
75746;SDS011;64363;52.198;21.020;2022-10-23T08:19:26;25.75;;;14.45;;
75746;SDS011;64363;52.198;21.020;2022-10-23T08:21:51;27.35;;;13.65;;
75746;SDS011;64363;52.198;21.020;2022-10-23T08:24:19;27.02;;;14.82;;
75746;SDS011;64363;52.198;21.020;2022-10-23T08:26:45;26.83;;;14.95;;
75746;SDS011;64363;52.198;21.020;2022-10-23T08:29:13;24.15;;;14.15;;
75746;SDS011;64363;52.198;21.020;2022-10-23T08:31:39;28.15;;;14.32;;
75746;SDS011;64363;52.198;21.020;2022-10-23T08:34:05;25.20;;;15.00;;
75746;SDS011;64363;52.198;21.020;2022-10-23T08:36:31;27.52;;;13.88;;
75746;SDS011;64363;52.198;21.020;2022-10-23T08:38:58;24.67;;;14.15;;
75746;SDS011;64363;52.198;21.020;2022-10-23T08:41:31;21.13;;;13.23;;
75746;SDS011;64363;52.198;21.020;2022-10-23T08:50:09;28.48;;;14.75;;
75746;SDS011;64363;52.198;21.020;2022-10-23T08:52:40;26.83;;;14.43;;
75746;SDS011;64363;52.198;21.020;2022-10-23T09:40:17;24.50;;;11.98;;
75746;SDS011;64363;52.198;21.020;2022-10-23T10:06:39;20.33;;;10.98;;
75746;SDS011;64363;52.198;21.020;2022-10-23T11:41:04;16.42;;;9.15;;
75746;SDS011;64363;52.198;21.020;2022-10-23T11:43:48;15.73;;;9.43;;
75746;SDS011;64363;52.198;21.020;2022-10-23T11:48:47;12.70;;;9.38;;
75746;SDS011;64363;52.198;21.020;2022-10-23T11:51:31;14.10;;;8.80;;
75746;SDS011;64363;52.198;21.020;2022-10-23T11:59:31;14.25;;;9.02;;
75746;SDS011;64363;52.198;21.020;2022-10-23T12:01:59;15.27;;;8.60;;
75746;SDS011;64363;52.198;21.020;2022-10-23T12:04:48;12.02;;;8.50;;
75746;SDS011;64363;52.198;21.020;2022-10-23T12:07:22;13.73;;;9.30;;
75746;SDS011;64363;52.198;21.020;2022-10-23T12:09:53;13.20;;;9.07;;
75746;SDS011;64363;52.198;21.020;2022-10-23T12:12:32;15.63;;;9.63;;
75746;SDS011;64363;52.198;21.020;2022-10-23T12:17:43;14.27;;;8.93;;
75746;SDS011;64363;52.198;21.020;2022-10-23T12:22:38;12.80;;;9.32;;
75746;SDS011;64363;52.198;21.020;2022-10-23T12:25:22;13.00;;;9.35;;
75746;SDS011;64363;52.198;21.020;2022-10-23T12:33:09;14.15;;;8.95;;
75746;SDS011;64363;52.198;21.020;2022-10-23T12:38:18;15.05;;;9.77;;
75746;SDS011;64363;52.198;21.020;2022-10-23T12:40:50;16.30;;;9.48;;
75746;SDS011;64363;52.198;21.020;2022-10-23T12:43:30;12.52;;;10.00;;
75746;SDS011;64363;52.198;21.020;2022-10-23T12:48:32;15.02;;;10.18;;
75746;SDS011;64363;52.198;21.020;2022-10-23T12:50:58;14.93;;;10.68;;
75746;SDS011;64363;52.198;21.020;2022-10-23T12:53:24;17.70;;;10.57;;
75746;SDS011;64363;52.198;21.020;2022-10-23T13:00:51;15.90;;;10.70;;
75746;SDS011;64363;52.198;21.020;2022-10-23T13:05:46;15.77;;;9.18;;
75746;SDS011;64363;52.198;21.020;2022-10-23T13:10:40;14.48;;;9.93;;
75746;SDS011;64363;52.198;21.020;2022-10-23T13:13:06;17.52;;;10.45;;
75746;SDS011;64363;52.198;21.020;2022-10-23T13:15:41;15.90;;;10.27;;
75746;SDS011;64363;52.198;21.020;2022-10-23T13:18:09;15.70;;;10.45;;
75746;SDS011;64363;52.198;21.020;2022-10-23T13:23:17;13.52;;;10.05;;
75746;SDS011;64363;52.198;21.020;2022-10-23T13:37:27;16.48;;;12.02;;
75746;SDS011;64363;52.198;21.020;2022-10-23T13:39:58;19.77;;;11.30;;
75746;SDS011;64363;52.198;21.020;2022-10-23T13:42:28;15.18;;;11.10;;
75746;SDS011;64363;52.198;21.020;2022-10-23T13:44:54;21.63;;;12.68;;
75746;SDS011;64363;52.198;21.020;2022-10-23T13:47:20;17.75;;;12.40;;
75746;SDS011;64363;52.198;21.020;2022-10-23T13:49:46;18.00;;;11.75;;
75746;SDS011;64363;52.198;21.020;2022-10-23T13:52:12;17.73;;;12.18;;
75746;SDS011;64363;52.198;21.020;2022-10-23T13:54:39;21.27;;;12.60;;
75746;SDS011;64363;52.198;21.020;2022-10-23T13:57:05;21.48;;;12.38;;
75746;SDS011;64363;52.198;21.020;2022-10-23T13:59:37;21.05;;;12.27;;
75746;SDS011;64363;52.198;21.020;2022-10-23T14:02:05;19.50;;;12.60;;
75746;SDS011;64363;52.198;21.020;2022-10-23T14:04:42;20.90;;;12.35;;
75746;SDS011;64363;52.198;21.020;2022-10-23T14:07:07;19.73;;;13.43;;
75746;SDS011;64363;52.198;21.020;2022-10-23T14:09:33;21.65;;;13.48;;
75746;SDS011;64363;52.198;21.020;2022-10-23T14:11:58;21.75;;;13.63;;
75746;SDS011;64363;52.198;21.020;2022-10-23T14:14:24;18.80;;;13.38;;
75746;SDS011;64363;52.198;21.020;2022-10-23T14:16:50;21.92;;;12.90;;
75746;SDS011;64363;52.198;21.020;2022-10-23T14:19:17;22.33;;;14.13;;
75746;SDS011;64363;52.198;21.020;2022-10-23T14:21:42;19.30;;;12.23;;
75746;SDS011;64363;52.198;21.020;2022-10-23T14:24:08;23.20;;;12.98;;
75746;SDS011;64363;52.198;21.020;2022-10-23T14:26:33;23.13;;;12.40;;
75746;SDS011;64363;52.198;21.020;2022-10-23T14:28:59;21.15;;;13.13;;
75746;SDS011;64363;52.198;21.020;2022-10-23T14:31:25;22.15;;;13.95;;
75746;SDS011;64363;52.198;21.020;2022-10-23T14:33:53;19.95;;;14.13;;
75746;SDS011;64363;52.198;21.020;2022-10-23T14:36:21;19.63;;;13.52;;
75746;SDS011;64363;52.198;21.020;2022-10-23T14:38:47;19.45;;;13.15;;
75746;SDS011;64363;52.198;21.020;2022-10-23T14:41:14;26.55;;;17.10;;
75746;SDS011;64363;52.198;21.020;2022-10-23T14:43:41;17.38;;;13.10;;
75746;SDS011;64363;52.198;21.020;2022-10-23T14:46:14;21.48;;;13.88;;
75746;SDS011;64363;52.198;21.020;2022-10-23T14:48:41;19.50;;;12.93;;
75746;SDS011;64363;52.198;21.020;2022-10-23T14:51:14;22.98;;;13.68;;
75746;SDS011;64363;52.198;21.020;2022-10-23T14:53:42;20.33;;;13.85;;
75746;SDS011;64363;52.198;21.020;2022-10-23T14:56:08;20.52;;;12.60;;
75746;SDS011;64363;52.198;21.020;2022-10-23T14:58:34;21.40;;;13.50;;
75746;SDS011;64363;52.198;21.020;2022-10-23T15:01:00;24.83;;;14.00;;
75746;SDS011;64363;52.198;21.020;2022-10-23T15:03:27;19.77;;;12.80;;
75746;SDS011;64363;52.198;21.020;2022-10-23T15:05:53;20.73;;;12.70;;
75746;SDS011;64363;52.198;21.020;2022-10-23T15:08:20;22.00;;;12.57;;
75746;SDS011;64363;52.198;21.020;2022-10-23T15:10:47;19.00;;;11.57;;
75746;SDS011;64363;52.198;21.020;2022-10-23T15:13:13;15.82;;;11.07;;
75746;SDS011;64363;52.198;21.020;2022-10-23T15:15:39;21.42;;;12.18;;
75746;SDS011;64363;52.198;21.020;2022-10-23T15:18:04;17.05;;;11.02;;
75746;SDS011;64363;52.198;21.020;2022-10-23T15:20:30;19.70;;;11.52;;
75746;SDS011;64363;52.198;21.020;2022-10-23T15:22:56;19.00;;;12.57;;
75746;SDS011;64363;52.198;21.020;2022-10-23T15:25:22;18.50;;;11.25;;
75746;SDS011;64363;52.198;21.020;2022-10-23T15:27:48;17.73;;;12.38;;
75746;SDS011;64363;52.198;21.020;2022-10-23T15:30:13;21.17;;;11.48;;
75746;SDS011;64363;52.198;21.020;2022-10-23T15:32:39;15.45;;;10.90;;
75746;SDS011;64363;52.198;21.020;2022-10-23T15:35:05;24.08;;;12.50;;
75746;SDS011;64363;52.198;21.020;2022-10-23T15:37:31;21.75;;;12.60;;
75746;SDS011;64363;52.198;21.020;2022-10-23T15:39:57;20.55;;;12.30;;
75746;SDS011;64363;52.198;21.020;2022-10-23T15:42:23;18.30;;;11.95;;
75746;SDS011;64363;52.198;21.020;2022-10-23T15:44:48;26.83;;;15.57;;
75746;SDS011;64363;52.198;21.020;2022-10-23T15:49:46;32.97;;;17.88;;
75746;SDS011;64363;52.198;21.020;2022-10-23T15:52:12;18.58;;;13.32;;
75746;SDS011;64363;52.198;21.020;2022-10-23T15:54:37;23.08;;;14.68;;
75746;SDS011;64363;52.198;21.020;2022-10-23T15:57:03;21.95;;;13.25;;
75746;SDS011;64363;52.198;21.020;2022-10-23T15:59:29;21.05;;;13.98;;
75746;SDS011;64363;52.198;21.020;2022-10-23T16:01:56;22.80;;;13.23;;
75746;SDS011;64363;52.198;21.020;2022-10-23T16:04:22;18.88;;;12.55;;
75746;SDS011;64363;52.198;21.020;2022-10-23T16:06:48;20.65;;;13.30;;
75746;SDS011;64363;52.198;21.020;2022-10-23T16:09:14;19.52;;;12.25;;
75746;SDS011;64363;52.198;21.020;2022-10-23T16:11:40;17.48;;;13.05;;
75746;SDS011;64363;52.198;21.020;2022-10-23T16:14:08;22.55;;;13.93;;
75746;SDS011;64363;52.198;21.020;2022-10-23T16:16:37;19.23;;;10.88;;
75746;SDS011;64363;52.198;21.020;2022-10-23T16:19:03;21.48;;;12.70;;
75746;SDS011;64363;52.198;21.020;2022-10-23T16:21:33;18.38;;;12.00;;
75746;SDS011;64363;52.198;21.020;2022-10-23T16:24:01;17.90;;;13.48;;
75746;SDS011;64363;52.198;21.020;2022-10-23T16:26:29;20.23;;;11.95;;
75746;SDS011;64363;52.198;21.020;2022-10-23T16:28:56;16.98;;;11.98;;
75746;SDS011;64363;52.198;21.020;2022-10-23T16:31:24;17.25;;;10.88;;
75746;SDS011;64363;52.198;21.020;2022-10-23T16:33:50;20.90;;;11.82;;
75746;SDS011;64363;52.198;21.020;2022-10-23T16:36:17;17.67;;;12.15;;
75746;SDS011;64363;52.198;21.020;2022-10-23T16:38:43;23.75;;;13.13;;
75746;SDS011;64363;52.198;21.020;2022-10-23T16:41:09;19.60;;;12.13;;
75746;SDS011;64363;52.198;21.020;2022-10-23T16:43:35;21.17;;;13.40;;
75746;SDS011;64363;52.198;21.020;2022-10-23T16:46:05;21.92;;;14.55;;
75746;SDS011;64363;52.198;21.020;2022-10-23T16:48:31;21.73;;;13.30;;
75746;SDS011;64363;52.198;21.020;2022-10-23T16:50:59;21.38;;;13.55;;
75746;SDS011;64363;52.198;21.020;2022-10-23T16:53:25;30.85;;;15.55;;
75746;SDS011;64363;52.198;21.020;2022-10-23T16:55:54;29.17;;;17.38;;
75746;SDS011;64363;52.198;21.020;2022-10-23T16:58:21;30.67;;;15.70;;
75746;SDS011;64363;52.198;21.020;2022-10-23T17:00:54;25.88;;;15.55;;
75746;SDS011;64363;52.198;21.020;2022-10-23T17:03:24;25.55;;;15.80;;
75746;SDS011;64363;52.198;21.020;2022-10-23T17:05:50;23.10;;;13.40;;
75746;SDS011;64363;52.198;21.020;2022-10-23T17:08:16;22.25;;;12.68;;
75746;SDS011;64363;52.198;21.020;2022-10-23T17:10:42;19.20;;;13.38;;
75746;SDS011;64363;52.198;21.020;2022-10-23T17:13:07;20.85;;;13.73;;
75746;SDS011;64363;52.198;21.020;2022-10-23T17:15:33;41.58;;;23.20;;
75746;SDS011;64363;52.198;21.020;2022-10-23T17:17:59;26.42;;;16.35;;
75746;SDS011;64363;52.198;21.020;2022-10-23T17:20:25;28.85;;;15.55;;
75746;SDS011;64363;52.198;21.020;2022-10-23T17:22:50;26.33;;;14.40;;
75746;SDS011;64363;52.198;21.020;2022-10-23T17:25:16;22.88;;;14.07;;
75746;SDS011;64363;52.198;21.020;2022-10-23T17:27:42;23.88;;;13.45;;
75746;SDS011;64363;52.198;21.020;2022-10-23T17:30:10;24.77;;;14.57;;
75746;SDS011;64363;52.198;21.020;2022-10-23T17:32:36;27.10;;;15.45;;
75746;SDS011;64363;52.198;21.020;2022-10-23T17:35:04;25.45;;;16.33;;
75746;SDS011;64363;52.198;21.020;2022-10-23T17:37:30;25.23;;;14.48;;
75746;SDS011;64363;52.198;21.020;2022-10-23T17:39:56;29.83;;;16.30;;
75746;SDS011;64363;52.198;21.020;2022-10-23T17:42:23;27.90;;;16.05;;
75746;SDS011;64363;52.198;21.020;2022-10-23T17:44:49;31.02;;;17.02;;
75746;SDS011;64363;52.198;21.020;2022-10-23T17:47:15;27.73;;;14.73;;
75746;SDS011;64363;52.198;21.020;2022-10-23T17:49:41;29.42;;;15.95;;
75746;SDS011;64363;52.198;21.020;2022-10-23T17:52:06;25.90;;;14.40;;
75746;SDS011;64363;52.198;21.020;2022-10-23T17:54:34;23.65;;;14.20;;
75746;SDS011;64363;52.198;21.020;2022-10-23T17:57:00;24.30;;;14.73;;
75746;SDS011;64363;52.198;21.020;2022-10-23T17:59:26;22.25;;;13.98;;
75746;SDS011;64363;52.198;21.020;2022-10-23T18:01:51;23.73;;;13.80;;
75746;SDS011;64363;52.198;21.020;2022-10-23T18:04:18;23.70;;;13.57;;
75746;SDS011;64363;52.198;21.020;2022-10-23T18:06:46;24.00;;;12.95;;
75746;SDS011;64363;52.198;21.020;2022-10-23T18:09:14;22.75;;;13.65;;
75746;SDS011;64363;52.198;21.020;2022-10-23T18:11:41;23.52;;;13.68;;
75746;SDS011;64363;52.198;21.020;2022-10-23T18:14:08;24.70;;;14.25;;
75746;SDS011;64363;52.198;21.020;2022-10-23T18:16:35;19.55;;;12.25;;
75746;SDS011;64363;52.198;21.020;2022-10-23T18:19:02;22.33;;;12.82;;
75746;SDS011;64363;52.198;21.020;2022-10-23T18:21:28;22.13;;;12.70;;
75746;SDS011;64363;52.198;21.020;2022-10-23T18:23:56;23.90;;;13.77;;
75746;SDS011;64363;52.198;21.020;2022-10-23T18:26:24;24.45;;;13.50;;
75746;SDS011;64363;52.198;21.020;2022-10-23T18:31:19;21.83;;;12.95;;
75746;SDS011;64363;52.198;21.020;2022-10-23T18:33:46;24.73;;;14.43;;
75746;SDS011;64363;52.198;21.020;2022-10-23T18:36:19;25.65;;;13.98;;
75746;SDS011;64363;52.198;21.020;2022-10-23T18:38:47;22.70;;;13.75;;
75746;SDS011;64363;52.198;21.020;2022-10-23T18:41:14;19.27;;;12.13;;
75746;SDS011;64363;52.198;21.020;2022-10-23T18:43:40;23.25;;;14.48;;
75746;SDS011;64363;52.198;21.020;2022-10-23T18:46:06;29.58;;;16.15;;
75746;SDS011;64363;52.198;21.020;2022-10-23T18:48:32;27.63;;;16.42;;